sensor_id;sensor_type;location;lat;lon;timestamp;temperature;humidity
29577;DHT22;16509;53.862;10.672;2022-09-03T00:02:42;16.40;99.90
29577;DHT22;16509;53.862;10.672;2022-09-03T00:05:17;16.60;99.90
29577;DHT22;16509;53.862;10.672;2022-09-03T00:07:53;16.30;99.90
29577;DHT22;16509;53.862;10.672;2022-09-03T00:10:27;16.30;99.90
29577;DHT22;16509;53.862;10.672;2022-09-03T00:12:58;16.30;99.90
29577;DHT22;16509;53.862;10.672;2022-09-03T00:15:25;16.40;99.90
29577;DHT22;16509;53.862;10.672;2022-09-03T00:18:07;16.70;99.90
29577;DHT22;16509;53.862;10.672;2022-09-03T00:20:39;16.60;99.90
29577;DHT22;16509;53.862;10.672;2022-09-03T00:23:15;16.30;99.90
29577;DHT22;16509;53.862;10.672;2022-09-03T00:25:59;16.60;99.90
29577;DHT22;16509;53.862;10.672;2022-09-03T00:28:31;16.40;99.90
29577;DHT22;16509;53.862;10.672;2022-09-03T00:31:17;16.40;99.90
29577;DHT22;16509;53.862;10.672;2022-09-03T00:33:46;16.30;99.90
29577;DHT22;16509;53.862;10.672;2022-09-03T00:36:20;16.30;99.90
29577;DHT22;16509;53.862;10.672;2022-09-03T00:38:47;16.30;99.90
29577;DHT22;16509;53.862;10.672;2022-09-03T00:44:44;16.20;99.90
29577;DHT22;16509;53.862;10.672;2022-09-03T00:47:16;16.30;99.90
29577;DHT22;16509;53.862;10.672;2022-09-03T00:50:02;16.40;99.90
29577;DHT22;16509;53.862;10.672;2022-09-03T00:52:40;16.20;99.90
29577;DHT22;16509;53.862;10.672;2022-09-03T00:55:48;16.20;99.90
29577;DHT22;16509;53.862;10.672;2022-09-03T01:04:56;16.00;99.90
29577;DHT22;16509;53.862;10.672;2022-09-03T01:10:34;16.10;99.90
29577;DHT22;16509;53.862;10.672;2022-09-03T01:13:16;16.30;99.90
29577;DHT22;16509;53.862;10.672;2022-09-03T01:15:47;16.10;99.90
29577;DHT22;16509;53.862;10.672;2022-09-03T01:18:27;16.30;99.90
29577;DHT22;16509;53.862;10.672;2022-09-03T01:29:14;16.20;99.90
29577;DHT22;16509;53.862;10.672;2022-09-03T01:37:57;16.10;99.90
29577;DHT22;16509;53.862;10.672;2022-09-03T01:43:39;16.00;99.90
29577;DHT22;16509;53.862;10.672;2022-09-03T01:46:12;16.10;99.90
29577;DHT22;16509;53.862;10.672;2022-09-03T01:49:02;15.90;99.90
29577;DHT22;16509;53.862;10.672;2022-09-03T01:51:30;16.00;99.90
29577;DHT22;16509;53.862;10.672;2022-09-03T02:00:11;16.00;99.90
29577;DHT22;16509;53.862;10.672;2022-09-03T02:02:39;15.90;99.90
29577;DHT22;16509;53.862;10.672;2022-09-03T02:05:14;15.90;99.90
29577;DHT22;16509;53.862;10.672;2022-09-03T02:07:44;15.80;99.90
29577;DHT22;16509;53.862;10.672;2022-09-03T02:10:14;16.00;99.90
29577;DHT22;16509;53.862;10.672;2022-09-03T02:12:42;15.80;99.90
29577;DHT22;16509;53.862;10.672;2022-09-03T02:15:15;15.80;99.90
29577;DHT22;16509;53.862;10.672;2022-09-03T02:17:43;16.00;99.90
29577;DHT22;16509;53.862;10.672;2022-09-03T02:20:15;16.00;99.90
29577;DHT22;16509;53.862;10.672;2022-09-03T02:22:44;15.90;99.90
29577;DHT22;16509;53.862;10.672;2022-09-03T02:25:09;15.90;99.90
29577;DHT22;16509;53.862;10.672;2022-09-03T02:27:37;16.30;99.90
29577;DHT22;16509;53.862;10.672;2022-09-03T02:30:03;15.70;99.90
29577;DHT22;16509;53.862;10.672;2022-09-03T02:32:29;15.70;99.90
29577;DHT22;16509;53.862;10.672;2022-09-03T02:34:55;15.90;99.90
29577;DHT22;16509;53.862;10.672;2022-09-03T02:37:21;15.70;99.90
29577;DHT22;16509;53.862;10.672;2022-09-03T02:39:47;15.80;99.90
29577;DHT22;16509;53.862;10.672;2022-09-03T02:42:13;15.80;99.90
29577;DHT22;16509;53.862;10.672;2022-09-03T02:44:43;15.70;99.90
29577;DHT22;16509;53.862;10.672;2022-09-03T02:47:11;15.80;99.90
29577;DHT22;16509;53.862;10.672;2022-09-03T02:49:36;15.90;99.90
29577;DHT22;16509;53.862;10.672;2022-09-03T02:52:05;16.10;99.90
29577;DHT22;16509;53.862;10.672;2022-09-03T02:54:34;15.80;99.90
29577;DHT22;16509;53.862;10.672;2022-09-03T02:57:05;16.50;99.90
29577;DHT22;16509;53.862;10.672;2022-09-03T02:59:32;15.80;99.90
29577;DHT22;16509;53.862;10.672;2022-09-03T03:01:58;15.90;99.90
29577;DHT22;16509;53.862;10.672;2022-09-03T03:04:24;16.00;99.90
29577;DHT22;16509;53.862;10.672;2022-09-03T03:06:49;15.80;99.90
29577;DHT22;16509;53.862;10.672;2022-09-03T03:09:16;15.70;99.90
29577;DHT22;16509;53.862;10.672;2022-09-03T03:11:42;15.80;99.90
29577;DHT22;16509;53.862;10.672;2022-09-03T03:14:07;16.20;99.90
29577;DHT22;16509;53.862;10.672;2022-09-03T03:16:33;15.90;99.90
29577;DHT22;16509;53.862;10.672;2022-09-03T03:18:59;15.80;99.90
29577;DHT22;16509;53.862;10.672;2022-09-03T03:21:25;16.30;99.90
29577;DHT22;16509;53.862;10.672;2022-09-03T03:23:50;15.90;99.90
29577;DHT22;16509;53.862;10.672;2022-09-03T03:26:18;15.90;99.90
29577;DHT22;16509;53.862;10.672;2022-09-03T03:28:46;15.70;99.90
29577;DHT22;16509;53.862;10.672;2022-09-03T03:31:18;15.90;99.90
29577;DHT22;16509;53.862;10.672;2022-09-03T03:33:44;15.70;99.90
29577;DHT22;16509;53.862;10.672;2022-09-03T03:36:14;15.60;99.90
29577;DHT22;16509;53.862;10.672;2022-09-03T03:38:41;15.60;99.90
29577;DHT22;16509;53.862;10.672;2022-09-03T03:41:09;15.70;99.90
29577;DHT22;16509;53.862;10.672;2022-09-03T03:43:34;15.60;99.90
29577;DHT22;16509;53.862;10.672;2022-09-03T03:46:00;15.70;99.90
29577;DHT22;16509;53.862;10.672;2022-09-03T03:48:26;15.80;99.90
29577;DHT22;16509;53.862;10.672;2022-09-03T03:50:52;15.50;99.90
29577;DHT22;16509;53.862;10.672;2022-09-03T03:53:18;16.10;99.90
29577;DHT22;16509;53.862;10.672;2022-09-03T03:55:52;15.50;99.90
29577;DHT22;16509;53.862;10.672;2022-09-03T03:58:18;15.50;99.90
29577;DHT22;16509;53.862;10.672;2022-09-03T04:00:44;15.50;99.90
29577;DHT22;16509;53.862;10.672;2022-09-03T04:03:10;15.80;99.90
29577;DHT22;16509;53.862;10.672;2022-09-03T04:05:36;15.80;99.90
29577;DHT22;16509;53.862;10.672;2022-09-03T04:08:01;15.50;99.90
29577;DHT22;16509;53.862;10.672;2022-09-03T04:10:27;15.50;99.90
29577;DHT22;16509;53.862;10.672;2022-09-03T04:12:55;16.10;99.90
29577;DHT22;16509;53.862;10.672;2022-09-03T04:15:21;15.60;99.90
29577;DHT22;16509;53.862;10.672;2022-09-03T04:17:46;15.40;99.90
29577;DHT22;16509;53.862;10.672;2022-09-03T04:20:12;15.50;99.90
29577;DHT22;16509;53.862;10.672;2022-09-03T04:22:38;16.30;99.90
29577;DHT22;16509;53.862;10.672;2022-09-03T04:25:03;15.60;99.90
29577;DHT22;16509;53.862;10.672;2022-09-03T04:27:29;15.40;99.90
29577;DHT22;16509;53.862;10.672;2022-09-03T04:29:55;15.50;99.90
29577;DHT22;16509;53.862;10.672;2022-09-03T04:32:21;15.40;99.90
29577;DHT22;16509;53.862;10.672;2022-09-03T04:35:05;15.40;99.90
29577;DHT22;16509;53.862;10.672;2022-09-03T04:37:31;15.10;99.90
29577;DHT22;16509;53.862;10.672;2022-09-03T04:39:57;15.10;99.90
29577;DHT22;16509;53.862;10.672;2022-09-03T04:42:23;15.40;99.90
29577;DHT22;16509;53.862;10.672;2022-09-03T04:44:49;15.40;99.90
29577;DHT22;16509;53.862;10.672;2022-09-03T04:47:14;15.50;99.90
29577;DHT22;16509;53.862;10.672;2022-09-03T04:49:40;15.20;99.90
29577;DHT22;16509;53.862;10.672;2022-09-03T04:52:06;15.20;99.90
29577;DHT22;16509;53.862;10.672;2022-09-03T04:54:32;15.10;99.90
29577;DHT22;16509;53.862;10.672;2022-09-03T04:56:57;15.40;99.90
29577;DHT22;16509;53.862;10.672;2022-09-03T04:59:23;15.20;99.90
29577;DHT22;16509;53.862;10.672;2022-09-03T05:01:48;15.30;99.90
29577;DHT22;16509;53.862;10.672;2022-09-03T05:04:14;15.60;99.90
29577;DHT22;16509;53.862;10.672;2022-09-03T05:06:39;15.10;99.90
29577;DHT22;16509;53.862;10.672;2022-09-03T05:09:05;15.20;99.90
29577;DHT22;16509;53.862;10.672;2022-09-03T05:11:31;15.40;99.90
29577;DHT22;16509;53.862;10.672;2022-09-03T05:13:58;15.00;99.90
29577;DHT22;16509;53.862;10.672;2022-09-03T05:16:25;15.20;99.90
29577;DHT22;16509;53.862;10.672;2022-09-03T05:18:54;15.10;99.90
29577;DHT22;16509;53.862;10.672;2022-09-03T05:21:20;15.00;99.90
29577;DHT22;16509;53.862;10.672;2022-09-03T05:23:48;15.30;99.90
29577;DHT22;16509;53.862;10.672;2022-09-03T05:26:17;15.40;99.90
29577;DHT22;16509;53.862;10.672;2022-09-03T05:28:44;15.10;99.90
29577;DHT22;16509;53.862;10.672;2022-09-03T05:31:12;14.90;99.90
29577;DHT22;16509;53.862;10.672;2022-09-03T05:33:43;14.90;99.90
29577;DHT22;16509;53.862;10.672;2022-09-03T05:36:11;14.90;99.90
29577;DHT22;16509;53.862;10.672;2022-09-03T05:38:37;15.20;99.90
29577;DHT22;16509;53.862;10.672;2022-09-03T05:41:05;15.30;99.90
29577;DHT22;16509;53.862;10.672;2022-09-03T05:43:32;14.90;99.90
29577;DHT22;16509;53.862;10.672;2022-09-03T05:45:59;14.80;99.90
29577;DHT22;16509;53.862;10.672;2022-09-03T05:48:26;14.90;99.90
29577;DHT22;16509;53.862;10.672;2022-09-03T05:51:07;15.10;99.90
29577;DHT22;16509;53.862;10.672;2022-09-03T05:53:35;14.90;99.90
29577;DHT22;16509;53.862;10.672;2022-09-03T05:56:04;15.10;99.90
29577;DHT22;16509;53.862;10.672;2022-09-03T05:58:37;14.90;99.90
29577;DHT22;16509;53.862;10.672;2022-09-03T06:01:11;15.60;99.90
29577;DHT22;16509;53.862;10.672;2022-09-03T06:03:38;14.90;99.90
29577;DHT22;16509;53.862;10.672;2022-09-03T06:06:03;15.50;99.90
29577;DHT22;16509;53.862;10.672;2022-09-03T06:08:29;15.00;99.90
29577;DHT22;16509;53.862;10.672;2022-09-03T06:10:59;14.90;99.90
29577;DHT22;16509;53.862;10.672;2022-09-03T06:13:24;15.60;99.90
29577;DHT22;16509;53.862;10.672;2022-09-03T06:15:58;15.60;99.90
29577;DHT22;16509;53.862;10.672;2022-09-03T06:18:28;15.30;99.90
29577;DHT22;16509;53.862;10.672;2022-09-03T06:21:01;15.50;99.90
29577;DHT22;16509;53.862;10.672;2022-09-03T06:23:27;15.50;99.90
29577;DHT22;16509;53.862;10.672;2022-09-03T06:26:05;15.40;99.90
29577;DHT22;16509;53.862;10.672;2022-09-03T06:28:35;15.40;99.90
29577;DHT22;16509;53.862;10.672;2022-09-03T06:31:02;16.20;99.90
29577;DHT22;16509;53.862;10.672;2022-09-03T06:33:29;15.80;99.90
29577;DHT22;16509;53.862;10.672;2022-09-03T06:35:57;15.80;99.90
29577;DHT22;16509;53.862;10.672;2022-09-03T06:38:27;16.20;99.90
29577;DHT22;16509;53.862;10.672;2022-09-03T06:41:01;15.80;99.90
29577;DHT22;16509;53.862;10.672;2022-09-03T06:43:30;16.00;99.90
29577;DHT22;16509;53.862;10.672;2022-09-03T06:46:04;16.30;99.90
29577;DHT22;16509;53.862;10.672;2022-09-03T06:48:31;16.10;99.90
29577;DHT22;16509;53.862;10.672;2022-09-03T06:51:06;16.10;99.90
29577;DHT22;16509;53.862;10.672;2022-09-03T06:53:34;16.20;99.90
29577;DHT22;16509;53.862;10.672;2022-09-03T06:56:02;16.40;99.90
29577;DHT22;16509;53.862;10.672;2022-09-03T06:58:51;16.30;99.90
29577;DHT22;16509;53.862;10.672;2022-09-03T07:01:19;16.40;99.90
29577;DHT22;16509;53.862;10.672;2022-09-03T07:03:47;16.50;99.90
29577;DHT22;16509;53.862;10.672;2022-09-03T07:06:15;16.50;99.90
29577;DHT22;16509;53.862;10.672;2022-09-03T07:08:42;16.70;99.90
29577;DHT22;16509;53.862;10.672;2022-09-03T07:11:11;16.80;99.90
29577;DHT22;16509;53.862;10.672;2022-09-03T07:13:43;16.80;99.90
29577;DHT22;16509;53.862;10.672;2022-09-03T07:16:20;16.60;99.90
29577;DHT22;16509;53.862;10.672;2022-09-03T07:18:47;16.90;99.90
29577;DHT22;16509;53.862;10.672;2022-09-03T07:21:18;17.00;99.90
29577;DHT22;16509;53.862;10.672;2022-09-03T07:23:44;17.10;99.90
29577;DHT22;16509;53.862;10.672;2022-09-03T07:26:13;17.30;99.90
29577;DHT22;16509;53.862;10.672;2022-09-03T07:28:40;17.30;99.90
29577;DHT22;16509;53.862;10.672;2022-09-03T07:31:10;18.30;99.90
29577;DHT22;16509;53.862;10.672;2022-09-03T07:33:40;17.60;99.90
29577;DHT22;16509;53.862;10.672;2022-09-03T07:36:14;17.70;99.90
29577;DHT22;16509;53.862;10.672;2022-09-03T07:38:41;17.90;99.90
29577;DHT22;16509;53.862;10.672;2022-09-03T07:41:10;17.90;99.90
29577;DHT22;16509;53.862;10.672;2022-09-03T07:43:38;18.10;99.90
29577;DHT22;16509;53.862;10.672;2022-09-03T07:46:08;18.30;99.90
29577;DHT22;16509;53.862;10.672;2022-09-03T07:48:38;18.30;99.90
29577;DHT22;16509;53.862;10.672;2022-09-03T07:51:04;18.30;99.90
29577;DHT22;16509;53.862;10.672;2022-09-03T07:53:29;18.50;99.90
29577;DHT22;16509;53.862;10.672;2022-09-03T07:56:03;19.10;99.90
29577;DHT22;16509;53.862;10.672;2022-09-03T07:58:30;18.40;99.90
29577;DHT22;16509;53.862;10.672;2022-09-03T08:00:56;18.70;99.90
29577;DHT22;16509;53.862;10.672;2022-09-03T08:03:22;19.70;99.90
29577;DHT22;16509;53.862;10.672;2022-09-03T08:05:48;19.20;99.90
29577;DHT22;16509;53.862;10.672;2022-09-03T08:08:13;18.90;99.90
29577;DHT22;16509;53.862;10.672;2022-09-03T08:10:40;18.80;99.90
29577;DHT22;16509;53.862;10.672;2022-09-03T08:13:05;18.90;99.90
29577;DHT22;16509;53.862;10.672;2022-09-03T08:15:32;19.00;99.90
29577;DHT22;16509;53.862;10.672;2022-09-03T08:18:02;19.00;99.90
29577;DHT22;16509;53.862;10.672;2022-09-03T08:20:28;18.80;99.90
29577;DHT22;16509;53.862;10.672;2022-09-03T08:23:00;19.20;99.90
29577;DHT22;16509;53.862;10.672;2022-09-03T08:25:27;19.10;99.90
29577;DHT22;16509;53.862;10.672;2022-09-03T08:27:52;19.20;99.90
29577;DHT22;16509;53.862;10.672;2022-09-03T08:30:18;19.30;99.90
29577;DHT22;16509;53.862;10.672;2022-09-03T08:32:45;19.40;99.90
29577;DHT22;16509;53.862;10.672;2022-09-03T08:35:12;19.40;99.90
29577;DHT22;16509;53.862;10.672;2022-09-03T08:37:37;19.50;99.90
29577;DHT22;16509;53.862;10.672;2022-09-03T08:40:04;19.70;99.90
29577;DHT22;16509;53.862;10.672;2022-09-03T08:42:54;19.70;99.90
29577;DHT22;16509;53.862;10.672;2022-09-03T08:45:22;19.70;99.90
29577;DHT22;16509;53.862;10.672;2022-09-03T08:48:06;19.80;99.90
29577;DHT22;16509;53.862;10.672;2022-09-03T08:50:40;20.00;99.90
29577;DHT22;16509;53.862;10.672;2022-09-03T08:53:09;20.20;99.90
29577;DHT22;16509;53.862;10.672;2022-09-03T08:55:59;20.40;99.90
29577;DHT22;16509;53.862;10.672;2022-09-03T08:58:27;20.30;99.90
29577;DHT22;16509;53.862;10.672;2022-09-03T09:00:58;20.20;99.90
29577;DHT22;16509;53.862;10.672;2022-09-03T09:22:09;21.00;99.90
29577;DHT22;16509;53.862;10.672;2022-09-03T09:24:42;21.10;99.90
29577;DHT22;16509;53.862;10.672;2022-09-03T09:27:13;21.40;99.90
29577;DHT22;16509;53.862;10.672;2022-09-03T09:29:41;21.50;99.90
29577;DHT22;16509;53.862;10.672;2022-09-03T09:32:11;22.20;99.90
29577;DHT22;16509;53.862;10.672;2022-09-03T09:34:38;21.30;99.90
29577;DHT22;16509;53.862;10.672;2022-09-03T09:37:13;22.00;99.90
29577;DHT22;16509;53.862;10.672;2022-09-03T09:39:40;21.50;99.90
29577;DHT22;16509;53.862;10.672;2022-09-03T09:42:09;21.70;99.90
29577;DHT22;16509;53.862;10.672;2022-09-03T09:44:40;22.10;99.90
29577;DHT22;16509;53.862;10.672;2022-09-03T09:47:10;21.50;99.90
29577;DHT22;16509;53.862;10.672;2022-09-03T09:49:54;21.40;99.90
29577;DHT22;16509;53.862;10.672;2022-09-03T09:52:21;21.60;99.90
29577;DHT22;16509;53.862;10.672;2022-09-03T09:54:51;21.50;99.90
29577;DHT22;16509;53.862;10.672;2022-09-03T09:57:22;21.80;99.90
29577;DHT22;16509;53.862;10.672;2022-09-03T09:59:48;22.00;99.90
29577;DHT22;16509;53.862;10.672;2022-09-03T10:02:25;22.40;99.90
29577;DHT22;16509;53.862;10.672;2022-09-03T10:05:00;22.40;99.90
29577;DHT22;16509;53.862;10.672;2022-09-03T10:07:36;22.10;99.90
29577;DHT22;16509;53.862;10.672;2022-09-03T10:15:21;22.50;99.90
29577;DHT22;16509;53.862;10.672;2022-09-03T10:17:59;22.40;99.90
29577;DHT22;16509;53.862;10.672;2022-09-03T10:20:38;22.20;99.90
29577;DHT22;16509;53.862;10.672;2022-09-03T10:23:24;22.20;99.90
29577;DHT22;16509;53.862;10.672;2022-09-03T10:28:24;22.60;99.90
29577;DHT22;16509;53.862;10.672;2022-09-03T10:31:17;22.80;99.90
29577;DHT22;16509;53.862;10.672;2022-09-03T10:36:37;22.60;99.90
29577;DHT22;16509;53.862;10.672;2022-09-03T10:40:14;22.50;99.90
29577;DHT22;16509;53.862;10.672;2022-09-03T10:42:28;22.50;99.90
29577;DHT22;16509;53.862;10.672;2022-09-03T10:50:47;22.90;99.90
29577;DHT22;16509;53.862;10.672;2022-09-03T10:53:29;22.80;99.90
29577;DHT22;16509;53.862;10.672;2022-09-03T10:56:02;22.60;99.90
29577;DHT22;16509;53.862;10.672;2022-09-03T11:09:40;22.80;99.90
29577;DHT22;16509;53.862;10.672;2022-09-03T11:12:26;22.70;99.90
29577;DHT22;16509;53.862;10.672;2022-09-03T11:15:00;22.10;99.90
29577;DHT22;16509;53.862;10.672;2022-09-03T11:17:40;22.40;99.90
29577;DHT22;16509;53.862;10.672;2022-09-03T11:20:20;23.10;99.90
29577;DHT22;16509;53.862;10.672;2022-09-03T11:22:49;23.20;99.90
29577;DHT22;16509;53.862;10.672;2022-09-03T11:25:18;23.10;99.90
29577;DHT22;16509;53.862;10.672;2022-09-03T11:30:48;22.20;99.90
29577;DHT22;16509;53.862;10.672;2022-09-03T11:33:20;22.20;99.90
29577;DHT22;16509;53.862;10.672;2022-09-03T11:35:55;22.20;99.90
29577;DHT22;16509;53.862;10.672;2022-09-03T11:38:21;22.20;99.90
29577;DHT22;16509;53.862;10.672;2022-09-03T11:41:00;22.20;99.90
29577;DHT22;16509;53.862;10.672;2022-09-03T11:43:30;22.10;99.90
29577;DHT22;16509;53.862;10.672;2022-09-03T11:49:10;22.40;99.90
29577;DHT22;16509;53.862;10.672;2022-09-03T11:51:37;22.50;99.90
29577;DHT22;16509;53.862;10.672;2022-09-03T11:56:38;22.70;99.90
29577;DHT22;16509;53.862;10.672;2022-09-03T12:02:05;22.20;99.90
29577;DHT22;16509;53.862;10.672;2022-09-03T12:05:05;22.00;99.90
29577;DHT22;16509;53.862;10.672;2022-09-03T12:19:12;24.30;99.90
29577;DHT22;16509;53.862;10.672;2022-09-03T12:21:40;24.30;99.90
29577;DHT22;16509;53.862;10.672;2022-09-03T12:24:10;24.90;99.90
29577;DHT22;16509;53.862;10.672;2022-09-03T12:26:41;25.20;99.90
29577;DHT22;16509;53.862;10.672;2022-09-03T12:29:24;23.90;99.90
29577;DHT22;16509;53.862;10.672;2022-09-03T12:31:49;23.90;99.90
29577;DHT22;16509;53.862;10.672;2022-09-03T12:34:17;24.50;99.90
29577;DHT22;16509;53.862;10.672;2022-09-03T12:36:51;25.20;99.90
29577;DHT22;16509;53.862;10.672;2022-09-03T12:39:20;24.60;99.90
29577;DHT22;16509;53.862;10.672;2022-09-03T12:42:01;24.80;99.90
29577;DHT22;16509;53.862;10.672;2022-09-03T12:49:26;25.80;99.90
29577;DHT22;16509;53.862;10.672;2022-09-03T12:52:02;25.60;99.90
29577;DHT22;16509;53.862;10.672;2022-09-03T12:54:29;25.10;99.90
29577;DHT22;16509;53.862;10.672;2022-09-03T12:56:57;24.80;99.90
29577;DHT22;16509;53.862;10.672;2022-09-03T12:59:26;24.20;99.90
29577;DHT22;16509;53.862;10.672;2022-09-03T13:02:01;24.00;99.90
29577;DHT22;16509;53.862;10.672;2022-09-03T13:04:31;24.20;99.90
29577;DHT22;16509;53.862;10.672;2022-09-03T13:07:13;25.00;99.90
29577;DHT22;16509;53.862;10.672;2022-09-03T13:09:45;24.20;99.90
29577;DHT22;16509;53.862;10.672;2022-09-03T13:12:32;24.40;99.90
29577;DHT22;16509;53.862;10.672;2022-09-03T13:15:05;24.10;99.90
29577;DHT22;16509;53.862;10.672;2022-09-03T13:23:36;24.50;99.90
29577;DHT22;16509;53.862;10.672;2022-09-03T13:26:20;24.40;99.90
29577;DHT22;16509;53.862;10.672;2022-09-03T13:31:47;24.90;99.90
29577;DHT22;16509;53.862;10.672;2022-09-03T13:34:29;24.00;99.90
29577;DHT22;16509;53.862;10.672;2022-09-03T13:40:10;22.50;99.90
29577;DHT22;16509;53.862;10.672;2022-09-03T13:42:54;22.40;99.90
29577;DHT22;16509;53.862;10.672;2022-09-03T13:48:08;22.80;99.90
29577;DHT22;16509;53.862;10.672;2022-09-03T13:51:19;22.90;99.90
29577;DHT22;16509;53.862;10.672;2022-09-03T13:56:53;22.30;99.90
29577;DHT22;16509;53.862;10.672;2022-09-03T13:59:37;22.30;99.90
29577;DHT22;16509;53.862;10.672;2022-09-03T14:07:53;22.50;99.90
29577;DHT22;16509;53.862;10.672;2022-09-03T14:15:57;22.30;99.90
29577;DHT22;16509;53.862;10.672;2022-09-03T14:18:59;22.30;99.90
29577;DHT22;16509;53.862;10.672;2022-09-03T14:21:42;22.40;99.90
29577;DHT22;16509;53.862;10.672;2022-09-03T14:26:55;22.10;99.90
29577;DHT22;16509;53.862;10.672;2022-09-03T14:29:33;22.10;99.90
29577;DHT22;16509;53.862;10.672;2022-09-03T14:34:48;22.20;99.90
29577;DHT22;16509;53.862;10.672;2022-09-03T14:39:58;22.10;99.90
29577;DHT22;16509;53.862;10.672;2022-09-03T14:44:58;22.10;99.90
29577;DHT22;16509;53.862;10.672;2022-09-03T14:50:50;22.20;99.90
29577;DHT22;16509;53.862;10.672;2022-09-03T15:02:32;22.00;99.90
29577;DHT22;16509;53.862;10.672;2022-09-03T15:07:35;22.10;99.90
29577;DHT22;16509;53.862;10.672;2022-09-03T15:10:36;22.00;99.90
29577;DHT22;16509;53.862;10.672;2022-09-03T15:13:15;21.60;99.90
29577;DHT22;16509;53.862;10.672;2022-09-03T15:18:18;21.80;99.90
29577;DHT22;16509;53.862;10.672;2022-09-03T15:20:55;21.20;99.90
29577;DHT22;16509;53.862;10.672;2022-09-03T15:34:03;21.10;99.90
29577;DHT22;16509;53.862;10.672;2022-09-03T15:36:37;21.00;99.90
29577;DHT22;16509;53.862;10.672;2022-09-03T15:39:16;21.10;99.90
29577;DHT22;16509;53.862;10.672;2022-09-03T15:41:52;21.10;99.90
29577;DHT22;16509;53.862;10.672;2022-09-03T15:44:20;21.00;99.90
29577;DHT22;16509;53.862;10.672;2022-09-03T15:47:04;21.70;99.90
29577;DHT22;16509;53.862;10.672;2022-09-03T15:52:59;21.10;99.90
29577;DHT22;16509;53.862;10.672;2022-09-03T15:55:38;21.20;99.90
29577;DHT22;16509;53.862;10.672;2022-09-03T15:58:20;21.30;99.90
29577;DHT22;16509;53.862;10.672;2022-09-03T16:00:52;21.30;99.90
29577;DHT22;16509;53.862;10.672;2022-09-03T16:03:38;21.30;99.90
29577;DHT22;16509;53.862;10.672;2022-09-03T16:06:30;21.30;99.90
29577;DHT22;16509;53.862;10.672;2022-09-03T16:09:19;21.30;99.90
29577;DHT22;16509;53.862;10.672;2022-09-03T16:12:13;21.20;99.90
29577;DHT22;16509;53.862;10.672;2022-09-03T16:14:56;21.20;99.90
29577;DHT22;16509;53.862;10.672;2022-09-03T16:22:47;20.90;99.90
29577;DHT22;16509;53.862;10.672;2022-09-03T16:25:19;21.10;99.90
29577;DHT22;16509;53.862;10.672;2022-09-03T16:27:57;21.00;99.90
29577;DHT22;16509;53.862;10.672;2022-09-03T16:33:34;20.90;99.90
29577;DHT22;16509;53.862;10.672;2022-09-03T16:41:40;20.80;99.90
29577;DHT22;16509;53.862;10.672;2022-09-03T16:44:21;21.20;99.90
29577;DHT22;16509;53.862;10.672;2022-09-03T16:52:58;20.60;99.90
29577;DHT22;16509;53.862;10.672;2022-09-03T17:12:09;20.40;99.90
29577;DHT22;16509;53.862;10.672;2022-09-03T17:20:41;20.40;99.90
29577;DHT22;16509;53.862;10.672;2022-09-03T17:23:12;20.40;99.90
29577;DHT22;16509;53.862;10.672;2022-09-03T17:25:51;20.30;99.90
29577;DHT22;16509;53.862;10.672;2022-09-03T17:31:19;20.20;99.90
29577;DHT22;16509;53.862;10.672;2022-09-03T17:33:56;20.30;99.90
29577;DHT22;16509;53.862;10.672;2022-09-03T17:36:25;20.10;99.90
29577;DHT22;16509;53.862;10.672;2022-09-03T17:39:18;20.80;99.90
29577;DHT22;16509;53.862;10.672;2022-09-03T17:42:16;20.10;99.90
29577;DHT22;16509;53.862;10.672;2022-09-03T17:45:06;20.00;99.90
29577;DHT22;16509;53.862;10.672;2022-09-03T17:50:31;20.00;99.90
29577;DHT22;16509;53.862;10.672;2022-09-03T17:55:49;19.80;99.90
29577;DHT22;16509;53.862;10.672;2022-09-03T17:59:29;20.20;99.90
29577;DHT22;16509;53.862;10.672;2022-09-03T18:01:26;19.90;99.90
29577;DHT22;16509;53.862;10.672;2022-09-03T18:04:26;20.10;99.90
29577;DHT22;16509;53.862;10.672;2022-09-03T18:07:11;19.60;99.90
29577;DHT22;16509;53.862;10.672;2022-09-03T18:15:35;19.50;99.90
29577;DHT22;16509;53.862;10.672;2022-09-03T18:18:07;19.40;99.90
29577;DHT22;16509;53.862;10.672;2022-09-03T18:20:46;19.60;99.90
29577;DHT22;16509;53.862;10.672;2022-09-03T18:26:32;19.40;99.90
29577;DHT22;16509;53.862;10.672;2022-09-03T18:29:31;19.90;99.90
29577;DHT22;16509;53.862;10.672;2022-09-03T18:32:16;19.30;99.90
29577;DHT22;16509;53.862;10.672;2022-09-03T18:35:01;19.20;99.90
29577;DHT22;16509;53.862;10.672;2022-09-03T18:37:45;19.00;99.90
29577;DHT22;16509;53.862;10.672;2022-09-03T18:40:51;19.10;99.90
29577;DHT22;16509;53.862;10.672;2022-09-03T18:43:59;19.10;99.90
29577;DHT22;16509;53.862;10.672;2022-09-03T18:56:49;18.90;99.90
29577;DHT22;16509;53.862;10.672;2022-09-03T18:59:49;18.10;99.90
29577;DHT22;16509;53.862;10.672;2022-09-03T19:08:43;19.30;99.90
29577;DHT22;16509;53.862;10.672;2022-09-03T19:20:35;18.40;99.90
29577;DHT22;16509;53.862;10.672;2022-09-03T19:23:21;18.90;99.90
29577;DHT22;16509;53.862;10.672;2022-09-03T19:26:25;18.30;99.90
29577;DHT22;16509;53.862;10.672;2022-09-03T19:29:38;18.30;99.90
29577;DHT22;16509;53.862;10.672;2022-09-03T19:33:04;18.40;99.90
29577;DHT22;16509;53.862;10.672;2022-09-03T19:36:15;18.30;99.90
29577;DHT22;16509;53.862;10.672;2022-09-03T19:42:07;18.20;99.90
29577;DHT22;16509;53.862;10.672;2022-09-03T19:45:15;18.20;99.90
29577;DHT22;16509;53.862;10.672;2022-09-03T19:51:22;18.00;99.90
29577;DHT22;16509;53.862;10.672;2022-09-03T19:54:08;18.10;99.90
29577;DHT22;16509;53.862;10.672;2022-09-03T19:56:55;18.00;99.90
29577;DHT22;16509;53.862;10.672;2022-09-03T19:59:44;18.00;99.90
29577;DHT22;16509;53.862;10.672;2022-09-03T20:02:32;17.90;99.90
29577;DHT22;16509;53.862;10.672;2022-09-03T20:05:21;18.00;99.90
29577;DHT22;16509;53.862;10.672;2022-09-03T20:08:07;18.10;99.90
29577;DHT22;16509;53.862;10.672;2022-09-03T20:10:55;17.80;99.90
29577;DHT22;16509;53.862;10.672;2022-09-03T20:13:21;17.70;99.90
29577;DHT22;16509;53.862;10.672;2022-09-03T20:24:07;17.50;99.90
29577;DHT22;16509;53.862;10.672;2022-09-03T20:35:11;17.40;99.90
29577;DHT22;16509;53.862;10.672;2022-09-03T20:40:40;17.30;99.90
29577;DHT22;16509;53.862;10.672;2022-09-03T20:51:24;17.10;99.90
29577;DHT22;16509;53.862;10.672;2022-09-03T20:54:18;17.30;99.90
29577;DHT22;16509;53.862;10.672;2022-09-03T20:57:09;17.30;99.90
29577;DHT22;16509;53.862;10.672;2022-09-03T21:00:03;17.20;99.90